X  Close Metar Aviation Weather Data     KRYV Watertown Municipal Airport
Temperature
36°F Temperature
23°F Dewpoint
60% Humidity



Wind
6 MPH
10 KM/H
3 M/S
5 KTS



310°
NW
Current Conditions

Mostly Scattered Clouds Mostly Scattered Clouds
Pressure 1025.72 (hPa) - 30.29 (inHg)
Visibility 9.9 (mile) - 16 (km)
Airport
Airport-code KRYV

Location: Watertown Municipal Airport
Distance: 8 (mi)

Metar:
KRYV 262055Z AUTO 31005KT 10SM SCT030 02/M05 A3029 RMK AO2 T00151046

Time: 26-10-2020 15:55 CDT